TimeEDT,TemperatureF,Dew PointF,Humidity,Sea Level PressureIn,VisibilityMPH,Wind Direction,Wind SpeedMPH,Gust SpeedMPH,PrecipitationIn,Events,Conditions,WindDirDegrees,DateUTC
12:04 AM,44.6,42.8,93,30.16,4.0,Calm,Calm,-,N/A,,Clear,0,2013-09-19 04:04:00
12:53 AM,46.0,42.1,86,30.14,10.0,Calm,Calm,-,N/A,,Clear,0,2013-09-19 04:53:00
1:21 AM,44.6,41.0,87,30.15,9.0,Calm,Calm,-,N/A,,Scattered Clouds,0,2013-09-19 05:21:00
1:27 AM,44.6,39.2,81,30.15,2.5,Calm,Calm,-,N/A,,Mostly Cloudy,0,2013-09-19 05:27:00
1:38 AM,46.4,44.6,93,30.15,3.0,Calm,Calm,-,N/A,,Mostly Cloudy,0,2013-09-19 05:38:00
1:45 AM,46.4,44.6,93,30.16,1.5,Calm,Calm,-,N/A,,Overcast,0,2013-09-19 05:45:00
1:53 AM,46.0,44.1,93,30.15,0.2,Calm,Calm,-,N/A,Fog,Fog,0,2013-09-19 05:53:00
2:17 AM,46.4,44.6,93,30.15,1.0,Calm,Calm,-,N/A,,Mist,0,2013-09-19 06:17:00
2:26 AM,44.6,42.8,93,30.15,0.2,Calm,Calm,-,N/A,Fog,Fog,0,2013-09-19 06:26:00
2:38 AM,44.6,42.8,93,30.15,0.5,Calm,Calm,-,N/A,Fog,Fog,0,2013-09-19 06:38:00
2:53 AM,45.0,43.0,93,30.14,1.0,Calm,Calm,-,N/A,,Mist,0,2013-09-19 06:53:00
3:02 AM,46.4,44.6,93,30.15,0.2,Calm,Calm,-,N/A,Fog,Fog,0,2013-09-19 07:02:00
3:53 AM,46.0,44.1,93,30.14,0.2,Calm,Calm,-,N/A,Fog,Fog,0,2013-09-19 07:53:00
4:25 AM,46.4,44.6,93,30.15,0.2,Calm,Calm,-,N/A,Fog,Fog,0,2013-09-19 08:25:00
4:53 AM,46.0,44.1,93,30.14,0.2,Calm,Calm,-,N/A,Fog,Fog,0,2013-09-19 08:53:00
5:53 AM,46.0,44.1,93,30.15,0.2,Calm,Calm,-,0.01,Fog,Fog,0,2013-09-19 09:53:00
6:53 AM,46.0,44.1,93,30.17,0.2,Calm,Calm,-,N/A,Fog,Fog,0,2013-09-19 10:53:00
7:53 AM,46.0,44.1,93,30.17,0.2,Calm,Calm,-,N/A,Fog,Fog,0,2013-09-19 11:53:00
8:02 AM,46.4,44.6,93,30.16,0.2,Calm,Calm,-,N/A,Fog,Fog,0,2013-09-19 12:02:00
8:29 AM,46.4,44.6,93,30.16,0.2,Calm,Calm,-,N/A,Fog,Fog,0,2013-09-19 12:29:00
8:53 AM,46.9,45.0,93,30.17,0.2,Calm,Calm,-,N/A,Fog,Fog,0,2013-09-19 12:53:00
9:24 AM,48.2,46.4,93,30.16,0.5,Calm,Calm,-,N/A,Fog,Fog,0,2013-09-19 13:24:00
9:28 AM,48.2,46.4,93,30.16,1.0,Calm,Calm,-,N/A,,Overcast,0,2013-09-19 13:28:00
9:38 AM,48.2,46.4,93,30.17,0.5,NW,3.5,-,N/A,Fog,Fog,320,2013-09-19 13:38:00
9:53 AM,48.0,46.0,93,30.17,1.0,Calm,Calm,-,N/A,,Overcast,0,2013-09-19 13:53:00
10:32 AM,51.8,46.4,82,30.16,8.0,Calm,Calm,-,N/A,,Scattered Clouds,0,2013-09-19 14:32:00
10:53 AM,57.0,48.9,74,30.14,10.0,Calm,Calm,-,N/A,,Scattered Clouds,0,2013-09-19 14:53:00
11:53 AM,64.9,48.9,56,30.13,10.0,WNW,3.5,-,N/A,,Clear,290,2013-09-19 15:53:00
12:53 PM,70.0,46.0,42,30.11,10.0,Calm,Calm,-,N/A,,Clear,0,2013-09-19 16:53:00
1:53 PM,73.0,48.0,41,30.07,10.0,Calm,Calm,-,N/A,,Clear,0,2013-09-19 17:53:00
2:53 PM,75.9,39.9,27,30.04,10.0,Calm,Calm,-,N/A,,Clear,0,2013-09-19 18:53:00
3:53 PM,77.0,43.0,30,30.03,10.0,Calm,Calm,-,N/A,,Clear,0,2013-09-19 19:53:00
4:53 PM,77.0,43.0,30,30.02,10.0,Calm,Calm,-,N/A,,Clear,0,2013-09-19 20:53:00
5:53 PM,69.1,55.9,63,30.02,10.0,Calm,Calm,-,N/A,,Clear,0,2013-09-19 21:53:00
6:53 PM,61.0,55.9,83,30.04,10.0,Calm,Calm,-,N/A,,Clear,0,2013-09-19 22:53:00
7:53 PM,55.0,51.1,86,30.06,10.0,Calm,Calm,-,N/A,,Clear,0,2013-09-19 23:53:00
8:53 PM,53.1,50.0,89,30.07,10.0,Calm,Calm,-,N/A,,Clear,0,2013-09-20 00:53:00
9:53 PM,52.0,48.9,89,30.08,10.0,Calm,Calm,-,N/A,,Clear,0,2013-09-20 01:53:00
10:53 PM,50.0,48.9,96,30.07,10.0,Calm,Calm,-,N/A,,Clear,0,2013-09-20 02:53:00
11:53 PM,48.9,46.0,90,30.07,9.0,Calm,Calm,-,N/A,,Clear,0,2013-09-20 03:53:00